Time;durP1;ratioP1;P1;durP2;ratioP2;P2;SDS_P1;SDS_P2;PMS_P1;PMS_P2;Temp;Humidity;BMP_temperature;BMP_pressure;BME280_temperature;BME280_humidity;BME280_pressure;Samples;Min_cycle;Max_cycle;Signal;HPM_P1;HPM_P2
2021/12/12 00:02:06;;;;;;;56.75;27.25;;;1.70;99.90;;;;;;5018286;28;20419;-56
2021/12/12 00:04:35;;;;;;;56.97;25.85;;;1.70;99.90;;;;;;5019588;28;20038;-57
2021/12/12 00:07:07;;;;;;;57.40;26.92;;;1.80;99.90;;;;;;5018777;28;20034;-54
2021/12/12 00:09:37;;;;;;;56.50;26.13;;;1.70;99.90;;;;;;5018170;28;20405;-55
2021/12/12 00:12:08;;;;;;;70.32;27.45;;;1.70;99.90;;;;;;5018319;28;20025;-57
2021/12/12 00:14:35;;;;;;;57.40;27.05;;;1.70;99.90;;;;;;5019112;28;20116;-57
2021/12/12 00:17:04;;;;;;;63.92;27.63;;;1.70;99.90;;;;;;5018482;28;20026;-56
2021/12/12 00:19:32;;;;;;;59.58;26.13;;;1.70;99.90;;;;;;5018923;28;20606;-58
2021/12/12 00:22:04;;;;;;;61.70;25.88;;;1.70;99.90;;;;;;5018633;28;20112;-55
2021/12/12 00:24:30;;;;;;;58.92;27.20;;;1.70;99.90;;;;;;5018250;28;20037;-56
2021/12/12 00:26:57;;;;;;;56.47;25.63;;;1.70;99.90;;;;;;5018871;28;20034;-54
2021/12/12 00:29:23;;;;;;;61.90;27.08;;;1.70;99.90;;;;;;5018117;28;20060;-55
2021/12/12 00:31:57;;;;;;;54.88;25.33;;;1.70;99.90;;;;;;5016797;28;20029;-54
2021/12/12 00:34:24;;;;;;;58.95;25.42;;;1.70;99.90;;;;;;5018538;28;20468;-54
2021/12/12 00:36:49;;;;;;;56.35;24.40;;;1.70;99.90;;;;;;5017353;28;20024;-55
2021/12/12 00:39:22;;;;;;;49.88;24.23;;;1.70;99.90;;;;;;5018332;28;20105;-57
2021/12/12 00:41:59;;;;;;;53.78;24.30;;;1.70;99.90;;;;;;5018143;28;20060;-56
2021/12/12 00:44:27;;;;;;;49.90;24.60;;;1.70;99.90;;;;;;5018636;28;20453;-56
2021/12/12 00:46:57;;;;;;;62.03;24.42;;;1.70;99.90;;;;;;5018074;28;20512;-56
2021/12/12 00:49:23;;;;;;;54.97;23.75;;;1.80;99.90;;;;;;5017755;28;20469;-53
2021/12/12 00:51:49;;;;;;;64.90;25.02;;;1.80;99.90;;;;;;5018523;28;20491;-57
2021/12/12 00:54:16;;;;;;;49.75;24.50;;;1.80;99.90;;;;;;5018722;28;20391;-55
2021/12/12 00:56:43;;;;;;;55.67;24.10;;;1.80;99.90;;;;;;5018325;28;20234;-56
2021/12/12 00:59:10;;;;;;;60.38;23.77;;;1.80;99.90;;;;;;5018457;28;20025;-57
2021/12/12 01:01:42;;;;;;;54.45;25.45;;;1.80;99.90;;;;;;5017879;28;20037;-55
2021/12/12 01:04:16;;;;;;;54.13;23.35;;;1.80;99.90;;;;;;5019147;28;20420;-55
2021/12/12 01:06:43;;;;;;;56.80;24.77;;;1.80;99.90;;;;;;5018461;28;20061;-55
2021/12/12 01:09:24;;;;;;;49.35;23.02;;;1.80;99.90;;;;;;5018101;28;20040;-54
2021/12/12 01:11:52;;;;;;;55.15;22.90;;;1.80;99.90;;;;;;5017356;28;20042;-54
2021/12/12 01:14:23;;;;;;;49.92;22.05;;;1.80;99.90;;;;;;5017260;28;20057;-52
2021/12/12 01:17:03;;;;;;;51.38;23.92;;;1.80;99.90;;;;;;5016070;28;20076;-53
2021/12/12 01:19:34;;;;;;;60.85;24.17;;;1.80;99.90;;;;;;5017739;28;20061;-51
2021/12/12 01:22:05;;;;;;;56.45;23.27;;;1.90;99.90;;;;;;5018383;28;20037;-50
2021/12/12 01:24:38;;;;;;;52.83;23.77;;;1.90;99.90;;;;;;5017696;28;20062;-53
2021/12/12 01:27:07;;;;;;;55.20;21.58;;;1.90;99.90;;;;;;5017713;28;20456;-54
2021/12/12 01:29:33;;;;;;;63.15;23.20;;;1.90;99.90;;;;;;5017618;28;20034;-54
2021/12/12 01:32:11;;;;;;;56.88;22.80;;;1.90;99.90;;;;;;5017449;28;20030;-51
2021/12/12 01:34:37;;;;;;;53.28;22.75;;;1.90;99.90;;;;;;5018298;28;20024;-53
2021/12/12 01:37:35;;;;;;;50.40;24.23;;;1.90;99.90;;;;;;5017640;28;20104;-55
2021/12/12 01:39:59;;;;;;;48.90;24.05;;;1.90;99.90;;;;;;5017558;28;20036;-51
2021/12/12 01:42:33;;;;;;;44.90;22.50;;;1.90;99.90;;;;;;5015013;28;20053;-52
2021/12/12 01:45:18;;;;;;;44.17;21.88;;;1.90;99.90;;;;;;5018693;28;20037;-52
2021/12/12 01:47:52;;;;;;;47.80;21.05;;;1.90;99.90;;;;;;5016270;28;20029;-53
2021/12/12 01:50:39;;;;;;;64.20;24.25;;;1.90;99.90;;;;;;5017658;28;20110;-55
2021/12/12 01:53:08;;;;;;;50.22;22.02;;;1.90;99.90;;;;;;5017067;28;20115;-54
2021/12/12 01:55:50;;;;;;;50.05;21.83;;;1.90;99.90;;;;;;5017229;28;20030;-56
2021/12/12 01:58:20;;;;;;;57.35;22.73;;;1.90;99.90;;;;;;5019226;28;20602;-56
2021/12/12 02:00:55;;;;;;;50.47;23.13;;;1.90;99.90;;;;;;5019085;28;20024;-52
2021/12/12 02:03:26;;;;;;;49.10;20.92;;;1.90;99.90;;;;;;5018648;28;20644;-52
2021/12/12 02:05:54;;;;;;;52.80;22.48;;;1.90;99.90;;;;;;5019563;28;20523;-52
2021/12/12 02:08:22;;;;;;;57.40;23.80;;;2.00;99.90;;;;;;5020786;28;20083;-54
2021/12/12 02:10:58;;;;;;;52.50;23.38;;;1.90;99.90;;;;;;5021047;28;20119;-56
2021/12/12 02:13:26;;;;;;;54.63;24.50;;;2.00;99.90;;;;;;5020867;28;20128;-54
2021/12/12 02:15:55;;;;;;;48.83;23.05;;;2.00;99.90;;;;;;5021744;28;20057;-55
2021/12/12 02:18:30;;;;;;;52.42;21.23;;;2.00;99.90;;;;;;5020660;28;20017;-55
2021/12/12 02:21:20;;;;;;;56.58;22.38;;;2.00;99.90;;;;;;5021229;28;20025;-53
2021/12/12 02:37:24;;;;;;;43.65;20.17;;;2.00;99.90;;;;;;5022349;28;20035;-55
2021/12/12 02:39:50;;;;;;;55.25;21.90;;;2.10;99.90;;;;;;5019653;28;20022;-55
2021/12/12 02:42:21;;;;;;;46.05;21.35;;;2.10;99.90;;;;;;5020484;28;20104;-55
2021/12/12 02:44:48;;;;;;;47.83;21.35;;;2.10;99.90;;;;;;5020059;28;20513;-53
2021/12/12 02:47:19;;;;;;;47.88;21.83;;;2.10;99.90;;;;;;5020412;28;20021;-55
2021/12/12 02:52:19;;;;;;;48.15;22.52;;;2.10;99.90;;;;;;5017858;28;20176;-54
2021/12/12 02:54:45;;;;;;;51.20;21.77;;;2.10;99.90;;;;;;5020286;28;20025;-55
2021/12/12 02:57:12;;;;;;;46.55;21.65;;;2.10;99.90;;;;;;5020048;28;20028;-53
2021/12/12 02:59:41;;;;;;;52.38;22.00;;;2.10;99.90;;;;;;5019941;28;20041;-53
2021/12/12 03:02:10;;;;;;;46.30;21.30;;;2.10;99.90;;;;;;5019151;28;20022;-51
2021/12/12 03:04:36;;;;;;;48.67;21.00;;;2.10;99.90;;;;;;5019977;28;20196;-53
2021/12/12 03:07:04;;;;;;;45.20;21.17;;;2.10;99.90;;;;;;5020238;28;20535;-53
2021/12/12 03:09:38;;;;;;;44.75;20.25;;;2.10;99.90;;;;;;5041158;22;20033;-53
2021/12/12 03:12:16;;;;;;;44.80;20.88;;;2.10;99.90;;;;;;4999559;28;20038;-50
2021/12/12 03:14:44;;;;;;;43.70;18.65;;;2.20;99.90;;;;;;5000083;28;20056;-56
2021/12/12 03:17:15;;;;;;;46.78;20.30;;;2.10;99.90;;;;;;4999792;28;20168;-50
2021/12/12 03:19:48;;;;;;;42.95;20.90;;;2.20;99.90;;;;;;4997006;28;20018;-46
2021/12/12 03:22:15;;;;;;;40.22;20.25;;;2.20;99.90;;;;;;4998362;28;20030;-51
2021/12/12 03:24:41;;;;;;;45.53;21.20;;;2.20;99.90;;;;;;4997990;28;20052;-52
2021/12/12 03:27:07;;;;;;;43.65;22.48;;;2.20;99.90;;;;;;4998676;28;20038;-48
2021/12/12 03:29:34;;;;;;;46.95;21.98;;;2.20;99.90;;;;;;4997533;28;20608;-50
2021/12/12 03:32:05;;;;;;;46.50;21.13;;;2.20;99.90;;;;;;4997455;28;20034;-50
2021/12/12 03:34:35;;;;;;;39.53;20.58;;;2.20;99.90;;;;;;4997400;28;20670;-47
2021/12/12 03:37:04;;;;;;;42.88;20.42;;;2.20;99.90;;;;;;4996878;28;20084;-48
2021/12/12 03:39:33;;;;;;;40.38;22.00;;;2.20;99.90;;;;;;4997458;28;20041;-46
2021/12/12 03:42:02;;;;;;;42.05;22.42;;;2.20;99.90;;;;;;4997689;28;20022;-47
2021/12/12 03:44:31;;;;;;;47.88;20.90;;;2.20;99.90;;;;;;4995758;28;20026;-46
2021/12/12 03:47:13;;;;;;;46.92;21.33;;;2.20;99.90;;;;;;4995869;28;20519;-48
2021/12/12 03:49:39;;;;;;;46.95;21.48;;;2.30;99.90;;;;;;4997539;28;20121;-54
2021/12/12 03:52:07;;;;;;;48.40;22.40;;;2.30;99.90;;;;;;4998740;28;20610;-46
2021/12/12 03:54:34;;;;;;;48.95;21.30;;;2.30;99.90;;;;;;4998224;28;20112;-50
2021/12/12 03:56:59;;;;;;;34.90;20.00;;;2.30;99.90;;;;;;4995762;28;20025;-51
2021/12/12 03:59:25;;;;;;;49.38;23.70;;;2.30;99.90;;;;;;4997103;28;20042;-52
2021/12/12 04:01:53;;;;;;;42.78;21.00;;;2.30;99.90;;;;;;4996414;28;20080;-51
2021/12/12 04:04:25;;;;;;;41.63;21.63;;;2.30;99.90;;;;;;4996560;28;20047;-50
2021/12/12 04:06:53;;;;;;;45.55;23.02;;;2.30;99.90;;;;;;4996523;28;20030;-49
2021/12/12 04:09:19;;;;;;;51.90;23.20;;;2.40;99.90;;;;;;4996885;28;20523;-50
2021/12/12 04:11:52;;;;;;;51.42;23.88;;;2.40;99.90;;;;;;4997705;28;20488;-48
2021/12/12 04:14:18;;;;;;;43.42;22.65;;;2.40;99.90;;;;;;4997295;28;20096;-47
2021/12/12 04:16:51;;;;;;;56.08;25.00;;;2.40;99.90;;;;;;4994407;28;20036;-50
2021/12/12 04:19:17;;;;;;;48.97;23.92;;;2.40;99.90;;;;;;4997123;28;20072;-48
2021/12/12 04:21:44;;;;;;;48.25;24.75;;;2.50;99.90;;;;;;4997831;28;20466;-50
2021/12/12 04:24:10;;;;;;;46.13;24.40;;;2.50;99.90;;;;;;4995898;28;20022;-48
2021/12/12 04:26:39;;;;;;;53.22;23.58;;;2.50;99.90;;;;;;4996880;28;20049;-54
2021/12/12 04:29:09;;;;;;;49.25;24.77;;;2.50;99.90;;;;;;4995418;28;20575;-47
2021/12/12 04:31:44;;;;;;;52.83;25.42;;;2.50;99.90;;;;;;4995708;28;20037;-50
2021/12/12 04:34:10;;;;;;;51.40;24.73;;;2.60;99.90;;;;;;4996481;28;20081;-53
2021/12/12 04:36:43;;;;;;;44.38;22.65;;;2.60;99.90;;;;;;4995557;28;20068;-49
2021/12/12 04:39:14;;;;;;;55.97;25.38;;;2.60;99.90;;;;;;4997049;28;20037;-54
2021/12/12 04:41:42;;;;;;;53.03;24.88;;;2.60;99.90;;;;;;4996539;28;20042;-47
2021/12/12 04:44:08;;;;;;;59.08;25.92;;;2.60;99.90;;;;;;4998168;28;20493;-46
2021/12/12 04:50:16;;;;;;;54.72;25.02;;;2.70;99.90;;;;;;4981858;28;20495;-47
2021/12/12 04:52:51;;;;;;;53.78;24.88;;;2.70;99.90;;;;;;4996317;28;20534;-51
2021/12/12 04:55:34;;;;;;;49.20;25.20;;;2.70;99.90;;;;;;4996423;28;20076;-50
2021/12/12 04:58:13;;;;;;;55.65;24.27;;;2.70;99.90;;;;;;4996820;28;20037;-49
2021/12/12 05:00:54;;;;;;;56.47;25.63;;;2.70;99.90;;;;;;4997853;28;20500;-51
2021/12/12 05:03:41;;;;;;;57.58;25.55;;;2.70;99.90;;;;;;4995616;28;20030;-47
2021/12/12 05:06:08;;;;;;;55.65;27.42;;;2.80;99.90;;;;;;4997512;28;20041;-49
2021/12/12 05:08:39;;;;;;;55.05;26.10;;;2.80;99.90;;;;;;4996251;28;20041;-49
2021/12/12 05:11:10;;;;;;;55.58;27.48;;;2.80;99.90;;;;;;4996575;28;20034;-47
2021/12/12 05:13:47;;;;;;;58.40;25.10;;;2.80;99.90;;;;;;4995562;28;20022;-48
2021/12/12 05:16:18;;;;;;;58.50;26.73;;;2.80;99.90;;;;;;4996230;28;20105;-50
2021/12/12 05:18:50;;;;;;;53.67;24.75;;;2.80;99.90;;;;;;4997647;28;20054;-53
2021/12/12 05:21:19;;;;;;;55.10;26.02;;;2.80;99.90;;;;;;4995402;28;20061;-49
2021/12/12 05:23:48;;;;;;;60.88;25.85;;;2.80;99.90;;;;;;4997278;28;20026;-48
2021/12/12 05:26:18;;;;;;;57.25;25.88;;;2.80;99.90;;;;;;4996339;28;20536;-50
2021/12/12 05:28:54;;;;;;;57.70;27.70;;;2.80;99.90;;;;;;4996660;28;20032;-48
2021/12/12 05:31:21;;;;;;;58.83;27.48;;;2.80;99.90;;;;;;4995679;28;20070;-50
2021/12/12 05:33:52;;;;;;;59.35;26.80;;;2.90;99.90;;;;;;5000787;28;20175;-50
2021/12/12 05:36:20;;;;;;;54.28;25.98;;;2.80;99.90;;;;;;4996894;28;20108;-47
2021/12/12 05:38:46;;;;;;;48.95;25.40;;;2.90;99.90;;;;;;5001315;28;20595;-48
2021/12/12 05:41:12;;;;;;;51.58;25.92;;;2.90;99.90;;;;;;5000176;28;20054;-48
2021/12/12 05:43:38;;;;;;;54.72;25.65;;;2.90;99.90;;;;;;4999886;28;20068;-48
2021/12/12 05:46:04;;;;;;;51.70;24.13;;;2.80;99.90;;;;;;5001823;28;20034;-47
2021/12/12 05:48:30;;;;;;;49.28;25.60;;;2.90;99.90;;;;;;4999245;28;20520;-47
2021/12/12 05:50:56;;;;;;;48.70;25.17;;;2.90;99.90;;;;;;5001808;28;20022;-47
2021/12/12 05:53:22;;;;;;;57.95;24.30;;;2.90;99.90;;;;;;5000115;28;20030;-47
2021/12/12 05:55:50;;;;;;;53.13;24.98;;;2.90;99.90;;;;;;4997435;28;20030;-47
2021/12/12 05:58:20;;;;;;;54.58;23.95;;;2.90;99.90;;;;;;5000546;28;20396;-55
2021/12/12 06:00:55;;;;;;;53.53;25.48;;;2.90;99.90;;;;;;5000120;28;20026;-50
2021/12/12 06:03:24;;;;;;;47.42;23.00;;;2.90;99.90;;;;;;4999264;28;20071;-46
2021/12/12 06:05:52;;;;;;;52.30;24.55;;;2.90;99.90;;;;;;4998725;28;20026;-46
2021/12/12 06:08:20;;;;;;;54.92;23.88;;;2.90;99.90;;;;;;4997970;28;20073;-47
2021/12/12 06:10:47;;;;;;;53.78;25.17;;;2.90;99.90;;;;;;5000069;28;20467;-48
2021/12/12 06:13:16;;;;;;;50.83;25.20;;;2.90;99.90;;;;;;4999611;28;20030;-48
2021/12/12 06:15:45;;;;;;;52.97;26.38;;;3.00;99.90;;;;;;5000155;28;20376;-51
2021/12/12 06:18:12;;;;;;;52.70;26.33;;;3.00;99.90;;;;;;4998646;28;20041;-47
2021/12/12 06:20:40;;;;;;;55.90;27.60;;;3.00;99.90;;;;;;4999700;28;20026;-51
2021/12/12 06:23:08;;;;;;;51.15;24.55;;;3.00;99.90;;;;;;5000342;28;20030;-51
2021/12/12 06:25:37;;;;;;;52.38;24.25;;;3.10;99.90;;;;;;4997591;28;20034;-52
2021/12/12 06:28:12;;;;;;;55.13;25.95;;;3.10;99.90;;;;;;4998320;28;20515;-47
2021/12/12 06:30:38;;;;;;;52.08;24.40;;;3.10;99.90;;;;;;4999662;28;20435;-50
2021/12/12 06:33:05;;;;;;;52.35;23.35;;;3.10;99.90;;;;;;5000577;28;20026;-50
2021/12/12 06:35:31;;;;;;;54.78;27.02;;;3.10;99.90;;;;;;4999987;28;20023;-55
2021/12/12 06:38:03;;;;;;;59.42;26.05;;;3.10;99.90;;;;;;4999979;28;20113;-48
2021/12/12 06:40:29;;;;;;;46.95;23.98;;;3.20;99.90;;;;;;4997502;28;20519;-48
2021/12/12 06:42:55;;;;;;;51.13;25.88;;;3.10;99.90;;;;;;4999311;28;20018;-49
2021/12/12 06:45:22;;;;;;;53.25;24.92;;;3.20;99.90;;;;;;4999974;28;20088;-50
2021/12/12 06:47:48;;;;;;;52.78;23.75;;;3.20;99.90;;;;;;4996535;28;20034;-55
2021/12/12 06:50:13;;;;;;;47.53;23.38;;;3.20;99.90;;;;;;5001280;28;20030;-48
2021/12/12 06:52:40;;;;;;;46.45;22.75;;;3.20;99.90;;;;;;4999694;28;20533;-46
2021/12/12 06:55:09;;;;;;;53.13;22.30;;;3.20;99.90;;;;;;4999425;28;20025;-47
2021/12/12 06:57:35;;;;;;;50.53;23.08;;;3.20;99.90;;;;;;4996396;28;20042;-53
2021/12/12 07:00:01;;;;;;;52.75;22.55;;;3.20;99.90;;;;;;4999492;28;20504;-57
2021/12/12 07:02:27;;;;;;;43.63;22.10;;;3.30;99.90;;;;;;4997178;28;20408;-51
2021/12/12 07:04:54;;;;;;;47.38;20.33;;;3.30;99.90;;;;;;5000052;28;20038;-53
2021/12/12 07:07:20;;;;;;;52.45;24.10;;;3.30;99.90;;;;;;4998926;28;20112;-45
2021/12/12 07:09:47;;;;;;;49.25;22.20;;;3.30;99.90;;;;;;4998923;28;20104;-48
2021/12/12 07:12:15;;;;;;;47.58;23.27;;;3.30;99.90;;;;;;4999129;28;20018;-50
2021/12/12 07:14:43;;;;;;;40.22;18.90;;;3.30;99.90;;;;;;4998401;28;20026;-51
2021/12/12 07:17:09;;;;;;;46.10;20.40;;;3.30;99.90;;;;;;4998193;28;20433;-47
2021/12/12 07:19:37;;;;;;;38.47;21.15;;;3.30;99.90;;;;;;4996756;28;20499;-52
2021/12/12 07:22:03;;;;;;;39.92;19.95;;;3.30;99.90;;;;;;4997092;28;20109;-50
2021/12/12 07:24:30;;;;;;;40.00;19.70;;;3.40;99.90;;;;;;4998315;28;20132;-51
2021/12/12 07:26:58;;;;;;;43.38;18.80;;;3.40;99.90;;;;;;4996763;28;20129;-53
2021/12/12 07:29:24;;;;;;;43.33;20.63;;;3.40;99.90;;;;;;4999751;28;20088;-54
2021/12/12 07:31:50;;;;;;;34.72;17.52;;;3.30;99.90;;;;;;4999740;28;20030;-49
2021/12/12 07:34:17;;;;;;;36.60;17.63;;;3.40;99.90;;;;;;4998089;28;20369;-48
2021/12/12 07:36:50;;;;;;;40.17;18.20;;;3.40;99.90;;;;;;4997084;28;20026;-50
2021/12/12 07:39:19;;;;;;;32.75;17.02;;;3.40;99.90;;;;;;4998368;28;20044;-54
2021/12/12 07:41:47;;;;;;;32.30;16.00;;;3.40;99.90;;;;;;4997446;28;20045;-46
2021/12/12 07:44:15;;;;;;;32.08;16.00;;;3.50;99.90;;;;;;4996972;28;20022;-47
2021/12/12 07:46:43;;;;;;;29.70;15.25;;;3.50;99.90;;;;;;4998201;28;20026;-49
2021/12/12 07:49:09;;;;;;;32.35;17.17;;;3.50;99.90;;;;;;4997935;28;20373;-46
2021/12/12 07:51:38;;;;;;;28.48;15.73;;;3.50;99.90;;;;;;4998849;28;20025;-46
2021/12/12 07:54:05;;;;;;;35.70;16.52;;;3.40;99.90;;;;;;4996817;28;20116;-45
2021/12/12 07:56:34;;;;;;;26.10;14.05;;;3.50;99.90;;;;;;4995921;28;20034;-50
2021/12/12 07:59:04;;;;;;;35.47;15.98;;;3.40;99.90;;;;;;4995985;28;20053;-46
2021/12/12 08:01:30;;;;;;;29.00;14.23;;;3.40;99.90;;;;;;4995124;28;20077;-48
2021/12/12 08:03:57;;;;;;;31.25;14.40;;;3.50;99.90;;;;;;4996711;28;20029;-45
2021/12/12 08:06:24;;;;;;;26.75;13.63;;;3.50;99.90;;;;;;4995590;28;20026;-50
2021/12/12 08:08:52;;;;;;;25.90;13.70;;;3.50;99.90;;;;;;4997695;28;20128;-45
2021/12/12 08:11:24;;;;;;;30.27;15.10;;;3.60;99.90;;;;;;4995545;28;20402;-47
2021/12/12 08:13:50;;;;;;;27.35;13.73;;;3.50;99.90;;;;;;4997909;28;20034;-47
2021/12/12 08:16:17;;;;;;;27.77;13.88;;;3.50;99.90;;;;;;4994161;28;20456;-48
2021/12/12 08:18:44;;;;;;;32.30;14.25;;;3.50;99.90;;;;;;4995955;28;20556;-45
2021/12/12 08:21:11;;;;;;;25.70;13.45;;;3.60;99.90;;;;;;4996136;28;20649;-49
2021/12/12 08:23:38;;;;;;;27.20;12.82;;;3.50;99.90;;;;;;4994706;28;20524;-49
2021/12/12 08:26:07;;;;;;;29.70;14.48;;;3.60;99.90;;;;;;4999051;28;20019;-52
2021/12/12 08:28:35;;;;;;;32.47;14.95;;;3.60;99.90;;;;;;4995549;28;20042;-50
2021/12/12 08:31:01;;;;;;;22.58;13.02;;;3.60;99.90;;;;;;4998836;28;20037;-47
2021/12/12 08:33:27;;;;;;;25.05;13.13;;;3.60;99.90;;;;;;4997179;28;20070;-48
2021/12/12 08:35:54;;;;;;;28.83;12.90;;;3.60;99.90;;;;;;4996555;28;20033;-47
2021/12/12 08:38:19;;;;;;;22.67;13.48;;;3.60;99.90;;;;;;4996415;28;20481;-47
2021/12/12 08:40:52;;;;;;;23.83;13.50;;;3.60;99.90;;;;;;4997802;28;20165;-45
2021/12/12 08:43:19;;;;;;;28.20;13.88;;;3.60;99.90;;;;;;4997252;28;20048;-47
2021/12/12 08:45:53;;;;;;;28.98;12.98;;;3.60;99.90;;;;;;4996634;28;20059;-46
2021/12/12 08:48:21;;;;;;;28.35;13.43;;;3.60;99.90;;;;;;4996798;28;20485;-47
2021/12/12 08:50:50;;;;;;;26.50;12.10;;;3.60;99.90;;;;;;4996487;28;20034;-46
2021/12/12 08:53:17;;;;;;;28.02;15.68;;;3.60;99.90;;;;;;4994921;28;20027;-49
2021/12/12 08:55:48;;;;;;;22.40;11.43;;;3.60;99.90;;;;;;4997436;28;20040;-49
2021/12/12 08:58:17;;;;;;;24.02;12.32;;;3.60;99.90;;;;;;4996120;28;20030;-45
2021/12/12 09:00:55;;;;;;;29.17;13.85;;;3.60;99.90;;;;;;4995896;28;20072;-46
2021/12/12 09:03:47;;;;;;;27.05;12.95;;;3.60;99.90;;;;;;4993470;28;20045;-46
2021/12/12 09:06:15;;;;;;;24.73;11.60;;;3.60;99.90;;;;;;4993205;28;20042;-46
2021/12/12 09:08:52;;;;;;;27.15;12.30;;;3.60;99.90;;;;;;4996073;28;20366;-49
2021/12/12 09:11:24;;;;;;;30.27;13.38;;;3.60;99.90;;;;;;5025410;22;20053;-55
2021/12/12 09:13:56;;;;;;;26.83;12.90;;;3.70;99.90;;;;;;5018579;28;20404;-55
2021/12/12 09:16:32;;;;;;;28.58;12.57;;;3.70;99.90;;;;;;5017895;28;20033;-55
2021/12/12 09:19:09;;;;;;;24.38;11.68;;;3.70;99.90;;;;;;5018046;28;20645;-52
2021/12/12 09:22:07;;;;;;;21.27;12.20;;;3.70;99.90;;;;;;5017190;28;20476;-55
2021/12/12 09:24:47;;;;;;;23.65;11.45;;;3.70;99.90;;;;;;5016790;28;20061;-52
2021/12/12 09:27:43;;;;;;;23.92;11.63;;;3.80;99.90;;;;;;5018116;28;20017;-52
2021/12/12 09:30:13;;;;;;;21.83;10.90;;;3.80;99.90;;;;;;5018063;28;20512;-53
2021/12/12 09:32:48;;;;;;;19.48;11.13;;;3.80;99.90;;;;;;5018359;28;20065;-55
2021/12/12 09:35:32;;;;;;;17.83;9.07;;;3.80;99.90;;;;;;5018028;28;20030;-56
2021/12/12 09:38:11;;;;;;;18.48;8.57;;;3.80;99.90;;;;;;5018310;28;20041;-54
2021/12/12 09:40:58;;;;;;;16.45;9.05;;;3.90;99.90;;;;;;5017872;28;20502;-55
2021/12/12 09:43:31;;;;;;;;;;;3.90;99.90;;;;;;5018264;28;20040;-53
2021/12/12 09:46:04;;;;;;;12.43;6.78;;;3.90;99.90;;;;;;5017817;28;19908;-55
2021/12/12 09:51:57;;;;;;;10.97;5.17;;;4.00;99.90;;;;;;5017366;28;20582;-54
2021/12/12 09:54:31;;;;;;;9.85;5.90;;;4.00;99.90;;;;;;5017549;28;20692;-55
2021/12/12 09:56:57;;;;;;;9.15;4.85;;;4.10;99.90;;;;;;5016233;28;20473;-55
2021/12/12 09:59:51;;;;;;;8.32;4.28;;;4.10;99.90;;;;;;5017550;28;20041;-52
2021/12/12 10:02:21;;;;;;;5.82;4.22;;;4.10;99.90;;;;;;5017907;28;20116;-56
2021/12/12 10:05:03;;;;;;;6.00;3.40;;;4.10;99.90;;;;;;5017299;28;20108;-54
2021/12/12 10:07:49;;;;;;;6.25;3.80;;;4.20;99.90;;;;;;5016361;28;20042;-56
2021/12/12 10:10:24;;;;;;;7.55;4.13;;;4.20;99.90;;;;;;5032722;28;20117;-52
2021/12/12 10:13:18;;;;;;;3.65;3.08;;;4.20;99.90;;;;;;5015595;28;20049;-57
2021/12/12 10:15:51;;;;;;;3.70;2.75;;;4.30;99.90;;;;;;5018257;28;20026;-55
2021/12/12 10:18:22;;;;;;;3.90;3.00;;;4.30;99.90;;;;;;5018907;28;20095;-54
2021/12/12 10:21:06;;;;;;;5.25;3.25;;;4.30;99.90;;;;;;5020906;28;20113;-55
2021/12/12 10:24:13;;;;;;;5.32;3.65;;;4.30;99.90;;;;;;5021567;28;20037;-54
2021/12/12 10:26:45;;;;;;;6.05;3.38;;;4.30;99.90;;;;;;5021635;28;20088;-55
2021/12/12 10:29:19;;;;;;;4.45;3.17;;;4.30;99.90;;;;;;5021124;28;20026;-54
2021/12/12 10:31:52;;;;;;;4.82;3.15;;;4.30;99.90;;;;;;5020976;28;20026;-51
2021/12/12 10:34:26;;;;;;;4.30;3.03;;;4.30;99.90;;;;;;5021468;28;20211;-53
2021/12/12 10:37:04;;;;;;;5.22;2.78;;;4.30;99.90;;;;;;5044133;28;20488;-55
2021/12/12 10:39:44;;;;;;;6.05;3.47;;;4.30;99.90;;;;;;5020766;28;20025;-52
2021/12/12 10:42:16;;;;;;;4.75;3.00;;;4.40;99.90;;;;;;5022037;28;20539;-53
2021/12/12 10:44:57;;;;;;;4.30;3.15;;;4.40;99.90;;;;;;5021337;28;20025;-55
2021/12/12 10:48:02;;;;;;;4.43;3.15;;;4.40;99.90;;;;;;5022330;28;20117;-53
2021/12/12 10:50:34;;;;;;;4.80;3.08;;;4.40;99.90;;;;;;5011413;28;20045;-52
2021/12/12 10:53:27;;;;;;;6.57;3.80;;;4.40;99.90;;;;;;5020793;28;20534;-54
2021/12/12 10:56:15;;;;;;;7.03;4.07;;;4.40;99.90;;;;;;5012474;28;20044;-55
2021/12/12 10:58:51;;;;;;;4.00;3.55;;;4.40;99.90;;;;;;5019783;28;20515;-55
2021/12/12 11:01:24;;;;;;;12.07;8.90;;;4.40;99.90;;;;;;5019361;28;20025;-54
2021/12/12 11:03:56;;;;;;;3.63;3.22;;;4.40;99.90;;;;;;5021354;28;20085;-52
2021/12/12 11:06:28;;;;;;;4.78;3.58;;;4.40;99.90;;;;;;5020683;28;20550;-56
2021/12/12 11:09:01;;;;;;;8.20;5.93;;;4.40;99.90;;;;;;5020007;28;20022;-56
2021/12/12 11:11:37;;;;;;;3.30;3.00;;;4.50;99.90;;;;;;5019859;28;20240;-52
2021/12/12 11:14:16;;;;;;;4.78;3.00;;;4.50;99.90;;;;;;5021086;28;20547;-54
2021/12/12 11:16:59;;;;;;;3.55;3.00;;;4.50;99.90;;;;;;5019650;28;20026;-51
2021/12/12 11:19:38;;;;;;;5.50;3.88;;;4.50;99.90;;;;;;5020453;28;20029;-55
2021/12/12 11:22:24;;;;;;;3.10;2.80;;;4.50;99.90;;;;;;5019889;28;20663;-53
2021/12/12 11:25:13;;;;;;;4.60;3.03;;;4.60;99.90;;;;;;5020233;28;20045;-56
2021/12/12 11:27:45;;;;;;;4.35;3.13;;;4.50;99.90;;;;;;5018913;28;20051;-52
2021/12/12 11:30:18;;;;;;;5.18;3.60;;;4.60;99.90;;;;;;5018680;28;20029;-53
2021/12/12 11:32:44;;;;;;;4.63;3.85;;;4.60;99.90;;;;;;5020190;28;20128;-52
2021/12/12 11:35:12;;;;;;;5.00;4.07;;;4.60;99.90;;;;;;5019628;28;20030;-55
2021/12/12 11:37:52;;;;;;;3.40;3.10;;;4.60;99.90;;;;;;5018897;28;20029;-52
2021/12/12 11:40:23;;;;;;;3.88;3.50;;;4.60;99.90;;;;;;5019970;28;20022;-55
2021/12/12 11:42:58;;;;;;;4.28;3.58;;;4.70;99.90;;;;;;5019613;28;20061;-55
2021/12/12 11:45:29;;;;;;;3.55;3.10;;;4.70;99.90;;;;;;5019306;28;20037;-53
2021/12/12 11:48:08;;;;;;;4.10;3.28;;;4.70;99.90;;;;;;5019712;28;20488;-54
2021/12/12 11:51:00;;;;;;;5.45;3.83;;;4.70;99.90;;;;;;5020382;28;20057;-52
2021/12/12 11:53:57;;;;;;;5.57;4.57;;;4.70;99.90;;;;;;5003644;28;20420;-55
2021/12/12 11:56:34;;;;;;;4.20;3.65;;;4.80;99.90;;;;;;5013609;28;20190;-52
2021/12/12 11:59:19;;;;;;;5.20;3.60;;;4.80;99.90;;;;;;5018225;28;20021;-55
2021/12/12 12:01:51;;;;;;;4.28;3.65;;;4.80;99.90;;;;;;5019846;28;20480;-54
2021/12/12 12:04:35;;;;;;;3.88;3.28;;;4.80;99.90;;;;;;5020058;28;20140;-54
2021/12/12 12:07:29;;;;;;;8.40;3.65;;;4.80;99.90;;;;;;5019516;28;20052;-56
2021/12/12 12:10:09;;;;;;;5.28;4.40;;;4.90;99.90;;;;;;5020917;28;20553;-55
2021/12/12 12:12:54;;;;;;;3.78;3.47;;;4.90;99.90;;;;;;5019558;28;20037;-54
2021/12/12 12:15:52;;;;;;;5.60;4.53;;;4.90;99.90;;;;;;5020955;28;20112;-54
2021/12/12 12:18:34;;;;;;;5.53;3.83;;;5.00;99.90;;;;;;5021686;28;20025;-55
2021/12/12 12:21:08;;;;;;;4.35;3.90;;;4.90;99.90;;;;;;5022095;28;20029;-54
2021/12/12 12:24:22;;;;;;;6.25;4.90;;;4.90;99.90;;;;;;5020790;28;20112;-55
2021/12/12 12:27:02;;;;;;;6.30;4.72;;;4.90;99.90;;;;;;5018480;28;20048;-53
2021/12/12 12:29:27;;;;;;;;;;;4.90;99.90;;;;;;5020826;28;20484;-53
2021/12/12 12:32:32;;;;;;;6.47;5.30;;;4.90;99.90;;;;;;5018847;28;19959;-54
2021/12/12 12:35:19;;;;;;;8.48;5.78;;;4.90;99.90;;;;;;5019091;28;20040;-53
2021/12/12 12:38:22;;;;;;;11.50;7.82;;;5.00;99.90;;;;;;5018396;28;20044;-52
2021/12/12 12:41:25;;;;;;;6.10;5.13;;;4.90;99.90;;;;;;5019042;28;20254;-55
2021/12/12 12:44:29;;;;;;;64.07;31.70;;;5.00;99.90;;;;;;5018877;28;20702;-54
2021/12/12 12:47:32;;;;;;;8.23;6.22;;;4.90;99.90;;;;;;5018508;28;20030;-53
2021/12/12 12:50:26;;;;;;;8.65;6.32;;;5.00;99.90;;;;;;5019418;28;20026;-53
2021/12/12 12:53:19;;;;;;;6.45;5.78;;;5.00;99.90;;;;;;5017310;28;20025;-54
2021/12/12 12:56:09;;;;;;;6.68;4.90;;;5.00;99.90;;;;;;5018790;28;20041;-55
2021/12/12 12:58:40;;;;;;;5.28;4.78;;;5.00;99.90;;;;;;5018610;28;20045;-55
2021/12/12 13:01:13;;;;;;;5.78;4.70;;;5.00;99.90;;;;;;5018255;28;20021;-54
2021/12/12 13:04:08;;;;;;;7.10;5.47;;;5.10;99.90;;;;;;5018322;28;20025;-55
2021/12/12 13:07:05;;;;;;;6.45;5.10;;;5.10;99.90;;;;;;5018647;28;20025;-53
2021/12/12 13:09:57;;;;;;;6.40;5.07;;;5.10;99.90;;;;;;5018473;28;20112;-55
2021/12/12 13:12:48;;;;;;;8.07;5.85;;;5.10;99.90;;;;;;5018117;28;20288;-54
2021/12/12 13:15:27;;;;;;;8.38;7.13;;;5.10;99.90;;;;;;5017858;28;20021;-52
2021/12/12 13:18:17;;;;;;;8.35;6.13;;;5.20;99.90;;;;;;5017310;28;20392;-51
2021/12/12 13:21:10;;;;;;;6.65;5.95;;;5.20;99.90;;;;;;5018796;28;20033;-53
2021/12/12 13:23:58;;;;;;;6.80;5.25;;;5.20;99.90;;;;;;5018339;28;20029;-53
2021/12/12 13:26:46;;;;;;;8.73;6.90;;;5.20;99.90;;;;;;5016571;28;20029;-51
2021/12/12 13:29:25;;;;;;;7.53;6.72;;;5.20;99.90;;;;;;5018907;28;20116;-55
2021/12/12 13:32:02;;;;;;;8.40;7.32;;;5.30;99.90;;;;;;5016731;28;20061;-51
2021/12/12 13:34:49;;;;;;;8.35;6.10;;;5.30;99.90;;;;;;5018066;28;20084;-51
2021/12/12 13:37:35;;;;;;;11.50;9.55;;;5.30;99.90;;;;;;5016977;28;20030;-53
2021/12/12 13:40:34;;;;;;;7.00;6.30;;;5.30;99.90;;;;;;5018305;28;20052;-55